Time;durP1;ratioP1;P1;durP2;ratioP2;P2;SDS_P1;SDS_P2;PMS_P1;PMS_P2;Temp;Humidity;BMP_temperature;BMP_pressure;BME280_temperature;BME280_humidity;BME280_pressure;Samples;Min_cycle;Max_cycle;Signal;HPM_P1;HPM_P2
2022/03/23 00:01:02;;;;;;;9.00;6.88;;;2.80;97.80;;;;;;7378930;19;20392;-69
2022/03/23 00:03:27;;;;;;;9.23;6.77;;;2.80;98.00;;;;;;7375484;19;20347;-69
2022/03/23 00:05:54;;;;;;;7.47;6.10;;;2.80;98.90;;;;;;7380036;19;20323;-69
2022/03/23 00:08:21;;;;;;;8.25;6.60;;;2.70;99.30;;;;;;7376171;19;20902;-69
2022/03/23 00:10:46;;;;;;;10.65;7.05;;;2.70;99.00;;;;;;7380666;19;20313;-69
2022/03/23 00:13:12;;;;;;;9.43;6.75;;;2.80;99.00;;;;;;7375379;19;20330;-69
2022/03/23 00:15:39;;;;;;;7.90;6.45;;;2.70;99.80;;;;;;7380166;19;20352;-69
2022/03/23 00:18:07;;;;;;;9.35;6.70;;;2.70;99.90;;;;;;7375428;19;21100;-69
2022/03/23 00:20:33;;;;;;;8.33;6.30;;;2.60;99.90;;;;;;7377779;19;20427;-69
2022/03/23 00:22:59;;;;;;;8.87;7.07;;;2.60;99.90;;;;;;7376210;19;20416;-69
2022/03/23 00:25:26;;;;;;;9.80;6.88;;;2.50;99.90;;;;;;7362465;19;20403;-69
2022/03/23 00:27:51;;;;;;;8.05;6.32;;;2.50;99.90;;;;;;7371089;19;20333;-69
2022/03/23 00:30:17;;;;;;;9.95;6.90;;;2.50;99.90;;;;;;7376264;19;20313;-69
2022/03/23 00:32:43;;;;;;;11.90;7.03;;;2.40;99.90;;;;;;7374278;19;20336;-69
2022/03/23 00:35:08;;;;;;;8.00;6.15;;;2.40;99.90;;;;;;7379599;19;20419;-69
2022/03/23 00:37:35;;;;;;;9.60;6.60;;;2.30;99.90;;;;;;7376741;19;20349;-69
2022/03/23 00:40:01;;;;;;;9.00;6.43;;;2.30;99.90;;;;;;7377968;19;20346;-69
2022/03/23 00:42:27;;;;;;;9.30;6.93;;;2.30;99.90;;;;;;7371198;19;20308;-69
2022/03/23 00:44:53;;;;;;;10.85;6.30;;;2.30;99.90;;;;;;7376022;19;20341;-69
2022/03/23 00:47:19;;;;;;;10.30;6.35;;;2.20;99.90;;;;;;7378589;19;20312;-69
2022/03/23 00:49:45;;;;;;;10.73;7.07;;;2.20;99.90;;;;;;7376246;19;20361;-69
2022/03/23 00:52:11;;;;;;;8.35;6.07;;;2.20;99.90;;;;;;7381926;19;20325;-69
2022/03/23 00:54:37;;;;;;;8.47;6.27;;;2.10;99.90;;;;;;7380445;19;20304;-69
2022/03/23 00:57:04;;;;;;;8.00;6.22;;;2.10;99.90;;;;;;7381067;19;20336;-69
2022/03/23 00:59:29;;;;;;;8.07;6.17;;;2.00;99.90;;;;;;7382687;19;21002;-69
2022/03/23 01:01:55;;;;;;;7.90;6.35;;;2.00;99.90;;;;;;7379771;19;20547;-69
2022/03/23 01:04:21;;;;;;;7.68;6.50;;;2.00;99.90;;;;;;7384390;19;20423;-69
2022/03/23 01:06:47;;;;;;;10.43;6.78;;;2.00;99.90;;;;;;7383991;19;20459;-68
2022/03/23 01:09:13;;;;;;;10.25;6.38;;;1.90;99.90;;;;;;7377861;19;20794;-69
2022/03/23 01:11:39;;;;;;;10.40;6.80;;;2.00;99.90;;;;;;7383857;19;20379;-68
2022/03/23 01:14:05;;;;;;;9.10;6.53;;;1.90;99.90;;;;;;7380874;19;20297;-68
2022/03/23 01:16:31;;;;;;;7.85;6.38;;;1.80;99.90;;;;;;7383928;19;20877;-68
2022/03/23 01:18:58;;;;;;;10.13;6.97;;;1.80;99.90;;;;;;7382295;19;20348;-68
2022/03/23 01:21:23;;;;;;;8.60;6.83;;;1.70;99.90;;;;;;7382549;19;20392;-69
2022/03/23 01:23:50;;;;;;;8.27;6.40;;;1.70;99.90;;;;;;7382355;19;20387;-69
2022/03/23 01:26:15;;;;;;;8.80;6.85;;;1.60;99.90;;;;;;7382087;19;20343;-68
2022/03/23 01:28:41;;;;;;;7.72;6.53;;;1.60;99.90;;;;;;7365930;19;20344;-69
2022/03/23 01:31:08;;;;;;;7.43;6.20;;;1.50;99.90;;;;;;7384169;19;20316;-69
2022/03/23 01:33:34;;;;;;;8.67;6.63;;;1.50;99.90;;;;;;7379924;19;20297;-68
2022/03/23 01:36:00;;;;;;;8.07;6.00;;;1.40;99.90;;;;;;7380967;19;20362;-69
2022/03/23 01:38:25;;;;;;;10.90;7.00;;;1.30;99.90;;;;;;7382582;19;20325;-69
2022/03/23 01:40:51;;;;;;;8.35;6.38;;;1.30;99.90;;;;;;7380808;19;20312;-68
2022/03/23 01:43:17;;;;;;;8.10;5.77;;;1.20;99.90;;;;;;7377428;19;20340;-69
2022/03/23 01:45:42;;;;;;;9.20;6.05;;;1.30;99.90;;;;;;7377542;19;20325;-69
2022/03/23 01:48:08;;;;;;;8.10;6.13;;;1.20;99.90;;;;;;7380778;19;20324;-68
2022/03/23 01:50:34;;;;;;;8.60;6.33;;;1.20;99.90;;;;;;7381974;19;20833;-69
2022/03/23 01:52:59;;;;;;;7.00;5.65;;;1.20;99.90;;;;;;7378257;19;20464;-69
2022/03/23 01:55:25;;;;;;;9.95;6.30;;;1.20;99.90;;;;;;7381523;19;20333;-68
2022/03/23 01:57:54;;;;;;;7.60;6.00;;;1.20;99.90;;;;;;7374945;19;20365;-69
2022/03/23 02:00:20;;;;;;;8.70;6.40;;;1.20;99.90;;;;;;7382447;19;20313;-69
2022/03/23 02:02:48;;;;;;;7.53;5.68;;;1.20;99.90;;;;;;7379341;19;20361;-69
2022/03/23 02:05:15;;;;;;;11.20;6.45;;;1.20;99.90;;;;;;7379809;19;20335;-70
2022/03/23 02:07:51;;;;;;;7.47;5.60;;;1.10;99.90;;;;;;7378320;19;20906;-69
2022/03/23 02:10:17;;;;;;;7.82;6.60;;;1.10;99.90;;;;;;7382373;19;20741;-68
2022/03/23 02:12:51;;;;;;;7.05;5.90;;;1.10;99.90;;;;;;7379152;19;20304;-69
2022/03/23 02:15:17;;;;;;;6.50;5.90;;;1.10;99.90;;;;;;7376476;19;20366;-68
2022/03/23 02:17:44;;;;;;;7.43;6.00;;;1.00;99.90;;;;;;7380506;19;20348;-69
2022/03/23 02:20:10;;;;;;;7.28;6.13;;;1.00;99.90;;;;;;7380490;19;20358;-69
2022/03/23 02:22:36;;;;;;;11.75;6.82;;;1.00;99.90;;;;;;7379577;19;20313;-68
2022/03/23 02:25:03;;;;;;;6.83;6.03;;;0.90;99.90;;;;;;7380821;19;20355;-69
2022/03/23 02:27:30;;;;;;;8.65;6.63;;;0.90;99.90;;;;;;7378552;19;20675;-68
2022/03/23 02:29:57;;;;;;;7.93;6.57;;;0.80;99.90;;;;;;7382331;19;20341;-69
2022/03/23 02:32:24;;;;;;;9.50;6.30;;;0.80;99.90;;;;;;7379725;19;20313;-68
2022/03/23 02:34:50;;;;;;;8.00;6.32;;;0.80;99.90;;;;;;7381164;19;20352;-69
2022/03/23 02:37:16;;;;;;;7.15;6.43;;;0.80;99.90;;;;;;7378138;19;20324;-69
2022/03/23 02:39:42;;;;;;;7.90;6.35;;;0.80;99.90;;;;;;7382037;19;20324;-68
2022/03/23 02:42:08;;;;;;;7.68;6.03;;;0.70;99.90;;;;;;7374881;19;20360;-69
2022/03/23 02:44:34;;;;;;;11.00;7.38;;;0.70;99.90;;;;;;7374542;19;20336;-69
2022/03/23 02:47:01;;;;;;;9.35;7.63;;;0.70;99.90;;;;;;7378418;19;20404;-66
2022/03/23 02:49:27;;;;;;;6.90;5.82;;;0.50;99.90;;;;;;7379253;19;20340;-67
2022/03/23 02:51:52;;;;;;;7.82;6.18;;;0.50;99.90;;;;;;7378106;19;20682;-67
2022/03/23 03:02:49;;;;;;;8.45;6.35;;;0.50;99.90;;;;;;7173539;19;2004698;-67
2022/03/23 03:05:14;;;;;;;10.18;6.53;;;0.40;99.90;;;;;;7380676;19;20343;-67
2022/03/23 03:10:25;;;;;;;9.50;6.97;;;0.40;99.90;;;;;;7379030;19;20324;-67
2022/03/23 03:12:51;;;;;;;9.15;6.65;;;0.30;99.90;;;;;;7375357;19;20410;-68
2022/03/23 03:15:19;;;;;;;8.90;6.23;;;0.30;99.90;;;;;;7381600;19;20342;-67
2022/03/23 03:17:46;;;;;;;10.52;6.60;;;0.30;99.90;;;;;;7372486;19;20364;-67
2022/03/23 03:20:14;;;;;;;8.77;6.00;;;0.20;99.90;;;;;;7377658;19;20337;-68
2022/03/23 03:22:40;;;;;;;7.25;6.00;;;0.20;99.90;;;;;;7376710;19;20319;-67
2022/03/23 03:25:06;;;;;;;6.85;5.70;;;0.20;99.90;;;;;;7376510;19;20344;-67
2022/03/23 03:27:35;;;;;;;8.57;6.30;;;0.20;99.90;;;;;;7378665;19;20347;-67
2022/03/23 03:30:04;;;;;;;8.25;6.50;;;0.20;99.90;;;;;;7378838;19;20301;-67
2022/03/23 03:32:30;;;;;;;7.23;6.40;;;0.10;99.90;;;;;;7376385;19;20321;-67
2022/03/23 03:34:55;;;;;;;10.75;7.13;;;0.10;99.90;;;;;;7378517;19;20336;-68
2022/03/23 03:37:21;;;;;;;10.00;7.40;;;0.10;99.90;;;;;;7376150;19;20456;-67
2022/03/23 03:39:47;;;;;;;9.45;7.18;;;0.00;99.90;;;;;;7379912;19;20336;-67
2022/03/23 03:42:13;;;;;;;8.65;6.72;;;0.00;99.90;;;;;;7377530;19;20308;-67
2022/03/23 03:44:39;;;;;;;8.77;7.15;;;-0.10;99.90;;;;;;7375863;19;20416;-67
2022/03/23 03:47:05;;;;;;;10.88;6.65;;;-0.10;99.90;;;;;;7376842;19;20754;-67
2022/03/23 03:49:31;;;;;;;7.97;6.00;;;-0.10;99.90;;;;;;7376162;19;20317;-67
2022/03/23 03:51:57;;;;;;;7.55;6.47;;;-0.10;99.90;;;;;;7376393;19;20344;-67
2022/03/23 03:54:23;;;;;;;9.80;6.78;;;-0.10;99.90;;;;;;7377872;19;20350;-67
2022/03/23 03:56:48;;;;;;;10.00;6.60;;;-0.10;99.90;;;;;;7376303;19;20332;-66
2022/03/23 03:59:14;;;;;;;8.67;6.73;;;-0.10;99.90;;;;;;7377750;19;20324;-67
2022/03/23 04:01:40;;;;;;;8.15;6.60;;;-0.10;99.90;;;;;;7376578;19;20352;-67
2022/03/23 04:04:05;;;;;;;9.18;7.00;;;-0.20;99.90;;;;;;7375430;19;20412;-67
2022/03/23 04:06:31;;;;;;;9.13;6.83;;;-0.30;99.90;;;;;;7379866;19;20344;-67
2022/03/23 04:08:57;;;;;;;7.57;6.72;;;-0.30;99.90;;;;;;7377653;19;20321;-67
2022/03/23 04:11:23;;;;;;;7.47;6.68;;;-0.30;99.90;;;;;;7380230;19;20313;-67
2022/03/23 04:13:48;;;;;;;8.93;7.00;;;-0.30;99.90;;;;;;7381466;19;20367;-67
2022/03/23 04:16:14;;;;;;;9.63;7.13;;;-0.40;99.90;;;;;;7380231;19;20324;-66
2022/03/23 04:18:40;;;;;;;10.75;7.18;;;-0.30;99.90;;;;;;7352458;19;20991;-67
2022/03/23 04:21:06;;;;;;;8.57;6.72;;;-0.40;99.90;;;;;;7373479;19;20357;-67
2022/03/23 04:23:32;;;;;;;9.10;7.03;;;-0.40;99.90;;;;;;7372851;19;20336;-67
2022/03/23 04:25:58;;;;;;;9.05;6.38;;;-0.40;99.90;;;;;;7376197;19;21187;-67
2022/03/23 04:28:24;;;;;;;8.27;6.20;;;-0.40;99.90;;;;;;7374094;19;20329;-67
2022/03/23 04:30:49;;;;;;;8.02;7.18;;;-0.40;99.90;;;;;;7375804;19;20348;-66
2022/03/23 04:33:15;;;;;;;9.15;6.45;;;-0.40;99.90;;;;;;7370368;19;20357;-67
2022/03/23 04:35:41;;;;;;;7.80;6.67;;;-0.50;99.90;;;;;;7378828;19;20336;-67
2022/03/23 04:38:07;;;;;;;10.40;6.80;;;-0.50;99.90;;;;;;7361429;19;20332;-67
2022/03/23 04:40:32;;;;;;;6.93;6.10;;;-0.50;99.90;;;;;;7385482;19;20312;-68
2022/03/23 04:42:58;;;;;;;7.50;5.97;;;-0.50;99.90;;;;;;7373014;19;20357;-66
2022/03/23 04:45:24;;;;;;;7.40;5.78;;;-0.50;99.90;;;;;;7375513;19;20328;-67
2022/03/23 04:47:50;;;;;;;7.55;6.25;;;-0.50;99.90;;;;;;7372689;19;20337;-67
2022/03/23 04:50:16;;;;;;;8.70;7.03;;;-0.50;99.90;;;;;;7376365;19;20352;-67
2022/03/23 04:52:43;;;;;;;10.27;7.47;;;-0.60;99.90;;;;;;7374242;19;21099;-67
2022/03/23 04:55:10;;;;;;;6.88;6.00;;;-0.60;99.90;;;;;;7377000;19;20316;-67
2022/03/23 04:57:36;;;;;;;7.50;6.25;;;-0.60;99.90;;;;;;7372987;19;21031;-67
2022/03/23 05:00:02;;;;;;;7.63;6.75;;;-0.60;99.90;;;;;;7375997;19;20418;-67
2022/03/23 05:02:28;;;;;;;8.23;6.88;;;-0.60;99.90;;;;;;7373536;19;20333;-67
2022/03/23 05:04:54;;;;;;;10.40;7.03;;;-0.70;99.90;;;;;;7377486;19;20357;-67
2022/03/23 05:07:20;;;;;;;9.68;6.60;;;-0.70;99.90;;;;;;7373927;19;20320;-67
2022/03/23 05:09:45;;;;;;;9.07;6.47;;;-0.70;99.90;;;;;;7376941;19;20305;-67
2022/03/23 05:12:11;;;;;;;7.38;6.38;;;-0.70;99.90;;;;;;7369518;19;20349;-67
2022/03/23 05:14:37;;;;;;;7.90;6.40;;;-0.70;99.90;;;;;;7377614;19;20312;-67
2022/03/23 05:17:03;;;;;;;9.20;6.88;;;-0.70;99.90;;;;;;7374819;19;20341;-67
2022/03/23 05:19:29;;;;;;;10.95;7.55;;;-0.70;99.90;;;;;;7372488;19;20380;-67
2022/03/23 05:21:55;;;;;;;10.70;7.25;;;-0.80;99.90;;;;;;7373808;19;20789;-67
2022/03/23 05:24:20;;;;;;;10.00;7.20;;;-0.80;99.90;;;;;;7372117;19;20308;-66
2022/03/23 05:26:48;;;;;;;9.05;6.97;;;-0.80;99.90;;;;;;7362383;19;20435;-66
2022/03/23 05:29:17;;;;;;;10.33;7.47;;;-0.90;99.90;;;;;;7333469;19;20738;-67
2022/03/23 05:31:44;;;;;;;8.35;6.28;;;-0.90;99.90;;;;;;7352473;19;20330;-67
2022/03/23 05:34:09;;;;;;;9.37;7.03;;;-0.90;99.90;;;;;;7376900;19;20332;-66
2022/03/23 05:36:35;;;;;;;10.27;6.93;;;-0.80;99.90;;;;;;7373415;19;20296;-66
2022/03/23 05:39:01;;;;;;;8.63;7.20;;;-0.80;99.90;;;;;;7371848;19;20400;-67
2022/03/23 05:41:27;;;;;;;9.47;7.37;;;-0.70;99.90;;;;;;7377718;19;20338;-67
2022/03/23 05:43:52;;;;;;;9.40;7.18;;;-0.80;99.90;;;;;;7376802;19;20320;-67
2022/03/23 05:46:18;;;;;;;8.80;6.93;;;-0.70;99.90;;;;;;7378654;19;20329;-67
2022/03/23 05:48:44;;;;;;;11.13;7.70;;;-0.70;99.90;;;;;;7383316;19;20305;-68
2022/03/23 05:51:10;;;;;;;12.40;9.13;;;-0.60;99.90;;;;;;7381579;19;20416;-68
2022/03/23 05:53:36;;;;;;;10.57;7.82;;;-0.50;99.90;;;;;;7379471;19;20411;-68
2022/03/23 05:56:05;;;;;;;10.87;7.03;;;-0.50;99.90;;;;;;7391139;19;20317;-68
2022/03/23 05:58:31;;;;;;;14.68;9.50;;;-0.40;99.90;;;;;;7384964;19;20323;-68
2022/03/23 06:00:57;;;;;;;17.83;10.95;;;-0.30;99.90;;;;;;7385458;19;20408;-68
2022/03/23 06:03:23;;;;;;;11.43;7.90;;;-0.30;99.90;;;;;;7378767;19;20435;-68
2022/03/23 06:05:48;;;;;;;16.00;11.13;;;-0.20;99.90;;;;;;7381702;19;20339;-67
2022/03/23 06:08:14;;;;;;;15.65;11.60;;;-0.10;99.90;;;;;;7379006;19;20313;-68
2022/03/23 06:10:40;;;;;;;14.23;9.93;;;0.00;99.90;;;;;;7383280;19;20643;-68
2022/03/23 06:13:05;;;;;;;11.52;9.02;;;0.10;99.90;;;;;;7377964;19;20344;-68
2022/03/23 06:15:31;;;;;;;10.82;7.85;;;0.20;99.90;;;;;;7381931;19;20293;-68
2022/03/23 06:17:57;;;;;;;9.32;6.90;;;0.40;99.90;;;;;;7377703;19;20351;-68
2022/03/23 06:20:23;;;;;;;9.07;6.87;;;0.50;99.90;;;;;;7383429;19;20776;-68
2022/03/23 06:22:48;;;;;;;10.30;8.38;;;0.70;99.90;;;;;;7364622;19;20309;-68
2022/03/23 06:25:14;;;;;;;11.30;8.95;;;0.80;99.90;;;;;;7382250;19;20918;-68
2022/03/23 06:27:40;;;;;;;9.40;7.23;;;0.90;99.90;;;;;;7381681;19;20448;-67
2022/03/23 06:30:06;;;;;;;10.25;7.32;;;1.00;99.90;;;;;;7379457;19;20360;-68
2022/03/23 06:32:33;;;;;;;13.32;9.45;;;1.20;99.90;;;;;;7379916;19;20965;-68
2022/03/23 06:35:00;;;;;;;11.60;8.60;;;1.40;99.90;;;;;;7380955;19;20388;-67
2022/03/23 06:37:27;;;;;;;12.82;9.32;;;1.50;99.90;;;;;;7379567;19;20320;-68
2022/03/23 06:39:52;;;;;;;12.13;8.98;;;1.70;99.90;;;;;;7381532;19;20355;-68
2022/03/23 06:42:18;;;;;;;12.13;8.97;;;1.80;99.90;;;;;;7378005;19;20304;-67
2022/03/23 06:44:43;;;;;;;17.43;11.27;;;2.10;99.90;;;;;;7379107;19;20340;-68
2022/03/23 06:47:09;;;;;;;13.63;10.75;;;2.30;99.90;;;;;;7379336;19;20325;-68
2022/03/23 06:49:35;;;;;;;13.50;8.80;;;2.40;99.90;;;;;;7380342;19;20351;-68
2022/03/23 06:52:01;;;;;;;12.17;9.40;;;2.60;99.90;;;;;;7377094;19;20321;-68
2022/03/23 06:54:26;;;;;;;11.27;9.07;;;2.70;99.90;;;;;;7379495;19;20697;-68
2022/03/23 06:56:52;;;;;;;11.63;8.55;;;2.90;99.90;;;;;;7381866;19;20320;-68
2022/03/23 06:59:19;;;;;;;13.23;8.60;;;3.20;99.90;;;;;;7379493;19;20341;-68
2022/03/23 07:01:44;;;;;;;12.13;8.43;;;3.30;99.90;;;;;;7378858;19;20312;-67
2022/03/23 07:04:10;;;;;;;14.23;10.03;;;3.60;99.90;;;;;;7379911;19;20331;-68
2022/03/23 07:06:36;;;;;;;11.45;9.65;;;3.80;99.90;;;;;;7378333;19;20893;-68
2022/03/23 07:11:46;;;;;;;12.88;9.27;;;4.20;99.90;;;;;;7277518;19;2004357;-68
2022/03/23 07:14:12;;;;;;;13.75;9.13;;;4.40;99.90;;;;;;7379053;19;20737;-67
2022/03/23 07:16:38;;;;;;;11.13;8.52;;;4.70;99.90;;;;;;7376479;19;20352;-69
2022/03/23 07:19:04;;;;;;;9.27;6.88;;;4.80;99.90;;;;;;7379696;19;20384;-68
2022/03/23 07:21:31;;;;;;;9.93;7.95;;;5.10;99.90;;;;;;7384058;19;20321;-68
2022/03/23 07:23:56;;;;;;;8.75;7.57;;;5.30;99.90;;;;;;7379938;19;20317;-68
2022/03/23 07:26:22;;;;;;;8.05;6.80;;;5.50;99.90;;;;;;7377817;19;20327;-68
2022/03/23 07:28:48;;;;;;;11.85;7.85;;;5.70;99.90;;;;;;7379219;19;20812;-68
2022/03/23 07:31:14;;;;;;;9.45;7.28;;;5.90;99.90;;;;;;7381350;19;20857;-68
2022/03/23 07:33:39;;;;;;;11.87;7.53;;;6.00;99.90;;;;;;7373663;19;20328;-68
2022/03/23 07:36:05;;;;;;;9.73;7.57;;;6.20;99.90;;;;;;7380027;19;20361;-68
2022/03/23 07:38:31;;;;;;;10.77;7.60;;;6.30;99.90;;;;;;7384686;19;20333;-68
2022/03/23 07:40:56;;;;;;;9.47;7.50;;;6.50;99.90;;;;;;7382168;19;20332;-69
2022/03/23 07:43:22;;;;;;;10.43;8.02;;;6.70;99.90;;;;;;7375797;19;21060;-69
2022/03/23 07:45:48;;;;;;;8.43;7.00;;;6.80;99.90;;;;;;7380995;19;20915;-69
2022/03/23 07:48:15;;;;;;;10.77;8.32;;;6.90;99.90;;;;;;7377807;19;20325;-68
2022/03/23 07:50:41;;;;;;;9.23;7.30;;;7.00;99.90;;;;;;7378648;19;20386;-69
2022/03/23 07:53:07;;;;;;;10.50;8.07;;;7.20;99.90;;;;;;7375193;19;20332;-69
2022/03/23 07:55:33;;;;;;;10.88;8.50;;;7.30;99.90;;;;;;7378604;19;20344;-68
2022/03/23 07:57:58;;;;;;;10.75;8.10;;;7.40;99.90;;;;;;7377522;19;20893;-68
2022/03/23 08:00:24;;;;;;;9.93;7.80;;;7.60;99.90;;;;;;7375191;19;20328;-69
2022/03/23 08:02:50;;;;;;;8.55;6.63;;;7.70;99.90;;;;;;7373514;19;20757;-69
2022/03/23 08:05:16;;;;;;;7.63;6.63;;;7.70;99.90;;;;;;7377684;19;20758;-68
2022/03/23 08:07:42;;;;;;;11.13;7.37;;;7.80;99.90;;;;;;7358524;19;20941;-69
2022/03/23 08:10:08;;;;;;;9.23;7.60;;;7.80;99.90;;;;;;7375836;19;20405;-69
2022/03/23 08:12:34;;;;;;;10.82;7.45;;;7.90;99.90;;;;;;7376374;19;20361;-69
2022/03/23 08:15:00;;;;;;;10.70;7.70;;;8.00;99.90;;;;;;7378251;19;20348;-68
2022/03/23 08:17:25;;;;;;;10.45;7.50;;;8.20;99.90;;;;;;7373747;19;20797;-69
2022/03/23 08:22:36;;;;;;;10.00;7.00;;;8.60;99.90;;;;;;7277003;19;2004572;-69
2022/03/23 08:25:02;;;;;;;8.07;6.47;;;8.60;99.90;;;;;;7380796;19;20332;-69
2022/03/23 08:27:28;;;;;;;8.55;7.18;;;8.80;99.90;;;;;;7375642;19;20324;-68
2022/03/23 08:29:54;;;;;;;9.00;7.40;;;8.90;99.90;;;;;;7379735;19;20723;-69
2022/03/23 08:32:22;;;;;;;9.87;7.00;;;9.00;99.90;;;;;;7389887;19;20334;-68
2022/03/23 08:34:49;;;;;;;10.55;7.80;;;9.20;99.90;;;;;;7381716;19;20408;-69
2022/03/23 08:37:15;;;;;;;8.43;7.00;;;9.30;99.90;;;;;;7376497;19;20318;-69
2022/03/23 08:39:41;;;;;;;9.63;7.80;;;9.50;99.90;;;;;;7379953;19;20309;-69
2022/03/23 08:42:06;;;;;;;8.63;6.53;;;9.60;99.90;;;;;;7375845;19;20315;-69
2022/03/23 08:44:32;;;;;;;8.03;7.00;;;9.70;99.90;;;;;;7380550;19;20299;-69
2022/03/23 08:46:58;;;;;;;8.82;6.80;;;9.90;99.90;;;;;;7377317;19;20365;-69
2022/03/23 08:49:23;;;;;;;7.43;6.67;;;10.10;99.90;;;;;;7381606;19;20292;-69
2022/03/23 08:51:49;;;;;;;8.30;6.55;;;10.20;99.90;;;;;;7373222;19;20328;-69
2022/03/23 08:54:15;;;;;;;10.43;6.83;;;10.50;99.90;;;;;;7378349;19;20336;-69
2022/03/23 08:56:41;;;;;;;8.48;6.40;;;10.70;95.90;;;;;;7375863;19;20352;-69
2022/03/23 08:59:07;;;;;;;7.10;6.03;;;10.80;96.00;;;;;;7377809;19;20357;-69
2022/03/23 09:01:32;;;;;;;7.80;6.13;;;10.90;95.30;;;;;;7375721;19;20388;-69
2022/03/23 09:04:03;;;;;;;6.73;6.00;;;11.00;95.30;;;;;;7378001;19;20324;-69
2022/03/23 09:06:29;;;;;;;6.72;5.93;;;11.20;86.80;;;;;;7371482;19;20341;-69
2022/03/23 09:08:55;;;;;;;7.65;6.03;;;11.40;79.90;;;;;;7376419;19;20358;-70
2022/03/23 09:11:22;;;;;;;7.50;5.88;;;11.50;73.80;;;;;;7380693;19;20309;-70
2022/03/23 09:13:48;;;;;;;5.90;5.28;;;11.60;73.50;;;;;;7373644;19;20349;-69
2022/03/23 09:16:14;;;;;;;8.47;5.97;;;11.70;74.60;;;;;;7382858;19;20309;-69
2022/03/23 09:18:40;;;;;;;9.00;6.37;;;11.90;73.40;;;;;;7387456;19;20332;-70
2022/03/23 09:21:06;;;;;;;6.47;5.75;;;11.90;70.50;;;;;;7384069;19;20340;-70
2022/03/23 09:23:31;;;;;;;7.57;6.00;;;12.10;69.30;;;;;;7383934;19;20307;-69
2022/03/23 09:25:57;;;;;;;7.28;5.65;;;12.20;65.80;;;;;;7387885;19;20313;-69
2022/03/23 09:28:23;;;;;;;7.22;6.30;;;12.30;68.00;;;;;;7379233;19;20304;-70
2022/03/23 09:30:48;;;;;;;7.70;6.00;;;12.40;64.90;;;;;;7384657;19;20361;-70
2022/03/23 09:33:15;;;;;;;7.07;5.97;;;12.50;65.60;;;;;;7380018;19;20312;-70
2022/03/23 09:35:41;;;;;;;7.00;5.63;;;12.60;65.70;;;;;;7382845;19;20647;-70
2022/03/23 09:38:06;;;;;;;6.57;5.80;;;12.70;65.60;;;;;;7381785;19;20316;-70
2022/03/23 09:40:32;;;;;;;6.45;5.68;;;12.90;68.10;;;;;;7382563;19;20328;-70
2022/03/23 09:42:58;;;;;;;6.22;5.63;;;13.10;68.10;;;;;;7379577;19;20348;-70
2022/03/23 09:47:59;;;;;;;6.45;5.30;;;13.40;65.80;;;;;;7380979;19;20356;-70
2022/03/23 09:50:29;;;;;;;8.63;5.10;;;13.50;61.50;;;;;;7381215;19;20964;-70
2022/03/23 09:52:56;;;;;;;5.97;5.32;;;13.70;62.50;;;;;;7371114;19;20325;-70
2022/03/23 09:55:21;;;;;;;5.72;5.15;;;13.80;60.00;;;;;;7382411;19;20899;-71
2022/03/23 09:57:47;;;;;;;5.57;4.90;;;14.00;58.30;;;;;;7378291;19;20324;-71
2022/03/23 10:00:13;;;;;;;7.20;5.83;;;14.10;54.90;;;;;;7382637;19;20312;-70
2022/03/23 10:02:39;;;;;;;8.03;5.60;;;14.20;53.90;;;;;;7378470;19;20320;-70
2022/03/23 10:05:27;;;;;;;6.05;5.30;;;14.30;54.90;;;;;;7382979;19;20684;-70
2022/03/23 10:08:31;;;;;;;6.57;5.57;;;14.50;55.30;;;;;;7381655;19;20359;-71
2022/03/23 10:11:15;;;;;;;6.32;4.78;;;14.80;54.00;;;;;;7278764;19;2004921;-70
2022/03/23 10:14:32;;;;;;;6.25;5.63;;;14.90;51.20;;;;;;7379776;19;20320;-70
2022/03/23 10:17:28;;;;;;;7.50;5.63;;;15.20;52.20;;;;;;7276412;19;2004340;-70
2022/03/23 10:19:54;;;;;;;8.63;5.55;;;15.40;49.50;;;;;;7280711;19;2004399;-71
2022/03/23 10:22:20;;;;;;;5.70;5.10;;;15.60;52.30;;;;;;7380019;19;20325;-69
2022/03/23 10:24:46;;;;;;;6.23;5.57;;;15.90;50.70;;;;;;7379930;19;20684;-71
2022/03/23 10:27:14;;;;;;;7.18;5.40;;;16.10;52.70;;;;;;7379794;19;20349;-71
2022/03/23 10:29:45;;;;;;;6.05;5.40;;;16.30;50.10;;;;;;7378965;19;20321;-71
2022/03/23 10:32:11;;;;;;;7.40;5.28;;;16.60;51.00;;;;;;7375934;19;20319;-70
2022/03/23 10:34:40;;;;;;;7.13;5.77;;;16.80;47.30;;;;;;7376610;19;20412;-71
2022/03/23 10:37:06;;;;;;;5.70;4.93;;;17.10;48.80;;;;;;7379346;19;20338;-72
2022/03/23 10:39:32;;;;;;;5.72;5.13;;;17.20;48.30;;;;;;7382125;19;20357;-71
2022/03/23 10:42:13;;;;;;;6.00;5.18;;;17.50;47.60;;;;;;7379016;19;20559;-71
2022/03/23 10:44:39;;;;;;;10.32;5.63;;;17.80;47.20;;;;;;7379350;19;20391;-71
2022/03/23 10:47:05;;;;;;;5.68;5.13;;;17.90;46.60;;;;;;7378455;19;20396;-71
2022/03/23 10:49:36;;;;;;;7.53;4.93;;;18.10;46.40;;;;;;7383196;19;20312;-71
2022/03/23 10:52:28;;;;;;;7.70;5.68;;;18.50;45.90;;;;;;7382465;19;20305;-71
2022/03/23 10:55:00;;;;;;;8.90;5.88;;;18.60;43.40;;;;;;7282832;19;2004282;-73
2022/03/23 10:57:44;;;;;;;6.90;5.32;;;18.60;43.80;;;;;;7380404;19;20313;-72
2022/03/23 11:00:17;;;;;;;8.05;5.30;;;19.20;45.20;;;;;;7277719;19;2004378;-72
2022/03/23 11:02:46;;;;;;;5.97;4.75;;;19.10;41.80;;;;;;7380444;19;20662;-71
2022/03/23 11:05:32;;;;;;;7.07;5.60;;;19.50;43.90;;;;;;7378647;19;20344;-71
2022/03/23 11:08:12;;;;;;;7.65;6.45;;;19.90;42.40;;;;;;7276919;19;2004824;-71
2022/03/23 11:16:11;;;;;;;7.20;6.30;;;19.90;41.30;;;;;;7383133;19;20381;-72
2022/03/23 11:18:37;;;;;;;6.85;6.15;;;19.60;41.50;;;;;;7378646;19;20316;-72
2022/03/23 11:21:03;;;;;;;8.88;6.30;;;19.40;41.40;;;;;;7380094;19;20304;-72
2022/03/23 11:23:30;;;;;;;9.23;6.13;;;19.80;42.60;;;;;;7376121;19;20372;-72
2022/03/23 11:26:07;;;;;;;7.57;6.53;;;20.50;42.80;;;;;;7378516;19;20309;-72
2022/03/23 11:28:40;;;;;;;7.78;6.95;;;20.70;40.00;;;;;;7379324;19;20308;-72
2022/03/23 11:31:08;;;;;;;7.95;6.20;;;20.10;38.60;;;;;;7378833;19;20324;-72
2022/03/23 11:33:34;;;;;;;8.10;6.15;;;20.60;40.80;;;;;;7376836;19;20807;-72
2022/03/23 11:36:01;;;;;;;8.02;6.22;;;21.40;42.70;;;;;;7380583;19;20341;-72
2022/03/23 11:38:26;;;;;;;7.25;5.97;;;21.70;39.00;;;;;;7356830;19;20693;-72
2022/03/23 11:40:52;;;;;;;8.07;6.03;;;22.10;40.50;;;;;;7381424;19;20333;-72
2022/03/23 11:43:20;;;;;;;7.47;5.90;;;22.10;37.40;;;;;;7376574;19;20342;-72
2022/03/23 11:45:46;;;;;;;6.82;5.72;;;21.80;36.50;;;;;;7377564;19;20316;-72
2022/03/23 11:48:54;;;;;;;6.63;5.53;;;21.90;38.00;;;;;;7376238;19;21307;-72
2022/03/23 11:51:55;;;;;;;6.78;5.63;;;22.20;38.40;;;;;;7282054;19;2004577;-72
2022/03/23 11:58:19;;;;;;;6.30;5.22;;;22.50;36.40;;;;;;7273384;19;2004540;-73
2022/03/23 12:00:51;;;;;;;6.10;5.50;;;22.90;35.50;;;;;;7277385;19;2004578;-73
2022/03/23 12:03:57;;;;;;;10.30;6.40;;;23.00;34.20;;;;;;7377608;19;20324;-72
2022/03/23 12:06:24;;;;;;;5.50;4.77;;;22.80;33.70;;;;;;7275800;19;2004397;-73
2022/03/23 12:08:51;;;;;;;7.28;5.60;;;23.40;36.50;;;;;;7378735;19;20358;-73
2022/03/23 12:11:45;;;;;;;6.60;5.13;;;23.70;36.10;;;;;;7377269;19;21226;-73
2022/03/23 12:14:32;;;;;;;7.70;5.05;;;24.60;36.60;;;;;;7278764;19;2004304;-73
2022/03/23 12:16:57;;;;;;;6.05;5.05;;;24.90;32.40;;;;;;7359624;19;20373;-73
2022/03/23 12:19:24;;;;;;;6.10;4.93;;;24.50;31.80;;;;;;7380684;19;20956;-73
2022/03/23 12:22:14;;;;;;;5.75;5.13;;;24.90;34.60;;;;;;7377819;19;20333;-73
2022/03/23 12:25:07;;;;;;;5.82;5.22;;;24.80;32.20;;;;;;7277381;19;2004624;-73
2022/03/23 12:28:00;;;;;;;5.60;5.10;;;24.90;32.20;;;;;;7274980;19;2004788;-73
2022/03/23 12:30:26;;;;;;;5.53;4.93;;;24.10;30.40;;;;;;7277717;19;2004379;-73
2022/03/23 12:32:55;;;;;;;5.07;4.63;;;24.00;33.40;;;;;;7378352;19;20389;-73
2022/03/23 12:35:31;;;;;;;7.47;5.57;;;23.90;33.50;;;;;;7377348;19;20853;-73
2022/03/23 12:37:59;;;;;;;5.72;4.90;;;24.90;34.80;;;;;;7376963;19;20387;-73
2022/03/23 12:40:35;;;;;;;5.00;4.50;;;25.40;33.70;;;;;;7379405;19;20337;-74
2022/03/23 12:43:01;;;;;;;6.40;5.20;;;25.40;32.00;;;;;;7273080;19;2004395;-73
2022/03/23 12:45:31;;;;;;;5.22;4.72;;;25.60;32.00;;;;;;7379014;19;20344;-73
2022/03/23 12:48:07;;;;;;;5.35;4.70;;;25.50;33.40;;;;;;7373673;19;20411;-74
2022/03/23 12:59:13;;;;;;;7.50;5.00;;;25.70;30.40;;;;;;7281965;19;2004331;-74
2022/03/23 13:01:40;;;;;;;7.47;5.38;;;25.80;31.50;;;;;;7382772;19;20304;-73
2022/03/23 13:04:05;;;;;;;5.88;4.70;;;25.80;29.90;;;;;;7381405;19;20321;-74
2022/03/23 13:06:32;;;;;;;6.80;5.03;;;25.60;32.10;;;;;;7383959;19;20321;-74
2022/03/23 13:08:58;;;;;;;6.28;5.05;;;25.10;30.30;;;;;;7381370;19;20337;-73
2022/03/23 13:11:25;;;;;;;5.47;4.87;;;24.30;30.80;;;;;;7384388;19;20320;-73
2022/03/23 13:13:55;;;;;;;5.50;4.90;;;24.20;31.70;;;;;;7382370;19;20403;-74
2022/03/23 13:16:28;;;;;;;5.63;5.13;;;24.50;32.80;;;;;;7384307;19;20317;-74
2022/03/23 13:18:55;;;;;;;6.45;5.57;;;24.60;31.40;;;;;;7382128;19;20352;-73
2022/03/23 13:21:22;;;;;;;7.45;5.63;;;24.10;31.40;;;;;;7388492;19;20330;-72
2022/03/23 13:23:49;;;;;;;5.78;5.18;;;24.20;31.60;;;;;;7367771;19;20854;-73
2022/03/23 13:26:16;;;;;;;7.85;5.30;;;24.00;32.80;;;;;;7383898;19;20329;-73
2022/03/23 13:28:50;;;;;;;6.03;5.45;;;22.70;30.80;;;;;;7379922;19;20336;-73